PABE

Bethel Airport

Airport
ICAO code
PABE
Summary
ICAO Region
NAM
ICAO Territory
Location

Bethel,

Coordinates
60° 46' 47" N , 161° 50' 16" W
KCC
Airport BS
Bird Strike
Non Avian Wildlife Hazards to Aircraft
Airport CFIT
Altimeter Temperature Error Correction
Metar
PABE 141953Z 23007KT 10SM OVC040 M03/M04 A3035 RMK AO2 SLP282 T10281044

Description

Regional airport serving Bethel, Alaska.

Climatology

Subarctic climate (Köppen climate classification Dfc) - long, usually very cold winters, and short, cool to mild summers.

Runways

Designator Length Width Surface Rops
12/30 567 23 GRVL-G Yes/Yes
01R/19L 1219 23 ASPH-G Yes/Yes
01L/19R 1951 46 ASPH-F Yes/Yes

Airport map

Aerial View

SKYbrary Partners:

Safety knowledge contributed by: